Time;durP1;ratioP1;P1;durP2;ratioP2;P2;SDS_P1;SDS_P2;PMS_P1;PMS_P2;Temp;Humidity;BMP_temperature;BMP_pressure;BME280_temperature;BME280_humidity;BME280_pressure;Samples;Min_cycle;Max_cycle;Signal;HPM_P1;HPM_P2
2023/03/16 00:00:46;;;;;;;0.30;0.30;;;;;;;5.51;65.02;100548.28;4959684;28;20389;-84
2023/03/16 00:03:18;;;;;;;0.73;0.40;;;;;;;5.59;64.59;100569.41;4960054;28;20064;-84
2023/03/16 00:05:47;;;;;;;0.20;0.20;;;;;;;5.60;64.87;100565.13;4961555;28;20407;-84
2023/03/16 00:08:13;;;;;;;0.30;0.30;;;;;;;5.50;65.05;100573.97;4959922;28;20408;-84
2023/03/16 00:10:38;;;;;;;0.10;0.10;;;;;;;5.36;65.37;100561.56;4976088;28;20039;-84
2023/03/16 00:13:04;;;;;;;0.20;0.20;;;;;;;5.39;65.55;100559.72;4975963;28;20022;-84
2023/03/16 00:15:29;;;;;;;0.20;0.20;;;;;;;5.49;64.85;100562.88;4991791;28;20034;-83
2023/03/16 00:17:54;;;;;;;0.43;0.32;;;;;;;5.42;65.18;100575.06;4959563;28;20381;-84
2023/03/16 00:20:20;;;;;;;0.52;0.32;;;;;;;5.43;65.23;100576.72;4959574;28;20041;-84
2023/03/16 00:22:45;;;;;;;0.20;0.20;;;;;;;5.45;64.55;100579.25;4975257;28;20030;-84
2023/03/16 00:25:13;;;;;;;0.28;0.22;;;;;;;5.40;65.21;100571.66;4992262;28;20065;-84
2023/03/16 00:27:38;;;;;;;0.20;0.20;;;;;;;5.38;64.96;100573.44;4975829;28;20038;-84
2023/03/16 00:30:04;;;;;;;0.40;0.40;;;;;;;5.43;64.95;100588.72;4959256;28;20030;-84
2023/03/16 00:32:31;;;;;;;0.20;0.20;;;;;;;5.47;64.69;100598.84;4975730;28;20034;-84
2023/03/16 00:34:57;;;;;;;0.30;0.30;;;;;;;5.41;64.45;100588.78;4959352;28;20431;-84
2023/03/16 00:37:23;;;;;;;0.20;0.20;;;;;;;5.37;64.59;100606.84;4959300;28;20034;-83
2023/03/16 00:39:49;;;;;;;0.22;0.22;;;;;;;5.30;64.74;100597.63;4975588;28;20030;-84
2023/03/16 00:42:17;;;;;;;0.20;0.20;;;;;;;5.19;65.14;100583.38;4959360;28;20484;-84
2023/03/16 00:44:42;;;;;;;0.28;0.28;;;;;;;5.33;64.78;100602.69;4974448;28;20504;-84
2023/03/16 00:47:08;;;;;;;0.52;0.38;;;;;;;5.36;64.99;100611.13;4958722;28;20062;-84
2023/03/16 00:49:34;;;;;;;0.28;0.28;;;;;;;5.34;64.49;100617.19;4959218;28;20065;-84
2023/03/16 00:52:03;;;;;;;0.20;0.20;;;;;;;5.17;64.96;100594.56;4975305;28;20068;-84
2023/03/16 00:54:31;;;;;;;0.20;0.20;;;;;;;5.31;65.26;100623.25;4975319;28;20023;-84
2023/03/16 00:56:57;;;;;;;0.20;0.20;;;;;;;5.35;64.78;100624.00;4975396;28;20125;-84
2023/03/16 00:59:25;;;;;;;0.22;0.22;;;;;;;5.43;64.50;100627.22;4958625;28;20121;-83
2023/03/16 01:01:51;;;;;;;0.40;0.30;;;;;;;5.30;64.98;100621.56;4959435;28;20022;-84
2023/03/16 01:04:17;;;;;;;0.13;0.13;;;;;;;5.23;65.15;100614.09;4975398;28;20072;-83
2023/03/16 01:06:43;;;;;;;0.20;0.20;;;;;;;5.20;65.49;100625.25;4975099;28;20086;-84
2023/03/16 01:09:09;;;;;;;0.20;0.20;;;;;;;5.10;65.30;100611.81;4975006;28;20069;-84
2023/03/16 01:11:34;;;;;;;0.13;0.13;;;;;;;5.15;65.26;100606.59;4974731;28;20030;-84
2023/03/16 01:14:00;;;;;;;0.20;0.20;;;;;;;5.16;65.55;100628.78;4974276;28;20030;-84
2023/03/16 01:16:25;;;;;;;0.20;0.20;;;;;;;5.06;65.82;100612.81;4974744;28;20033;-84
2023/03/16 01:18:55;;;;;;;0.40;0.40;;;;;;;5.07;65.98;100629.03;4974492;28;20030;-84
2023/03/16 01:21:20;;;;;;;0.30;0.30;;;;;;;5.02;66.27;100630.88;4975192;28;20480;-83
2023/03/16 01:23:46;;;;;;;0.82;0.45;;;;;;;4.90;66.28;100617.47;4958566;28;20033;-84
2023/03/16 01:26:11;;;;;;;0.52;0.50;;;;;;;4.79;66.08;100596.41;4974861;28;20030;-83
2023/03/16 01:28:37;;;;;;;0.47;0.40;;;;;;;4.85;66.52;100616.78;4990381;28;20480;-84
2023/03/16 01:31:13;;;;;;;1.15;0.77;;;;;;;5.11;66.03;100646.00;4958610;28;20030;-84
2023/03/16 01:33:38;;;;;;;0.40;0.30;;;;;;;5.02;66.37;100638.56;4974823;28;20503;-84
2023/03/16 01:36:06;;;;;;;0.50;0.45;;;;;;;5.00;66.03;100632.63;4990409;28;20070;-84
2023/03/16 01:38:32;;;;;;;0.10;0.10;;;;;;;5.12;66.34;100637.47;4974776;28;20042;-84
2023/03/16 01:40:58;;;;;;;0.20;0.20;;;;;;;5.11;65.97;100640.88;4990597;28;20519;-83
2023/03/16 01:43:25;;;;;;;0.20;0.20;;;;;;;5.08;66.41;100646.09;4957965;28;20026;-84
2023/03/16 01:46:05;;;;;;;0.20;0.20;;;;;;;5.02;66.53;100661.66;4958258;28;20026;-84
2023/03/16 01:49:04;;;;;;;0.17;0.17;;;;;;;4.93;66.64;100643.94;4991631;28;20488;-84
2023/03/16 01:51:35;;;;;;;0.20;0.20;;;;;;;4.98;67.21;100655.75;4990650;28;20026;-84
2023/03/16 01:54:28;;;;;;;1.40;0.43;;;;;;;4.95;66.86;100655.00;4990358;28;20044;-83
2023/03/16 01:57:20;;;;;;;;;;;;;;;4.93;67.04;100659.31;4986998;28;20068;-84
2023/03/16 02:00:17;;;;;;;0.20;0.20;;;;;;;4.88;67.49;100665.38;4990063;28;19914;-84
2023/03/16 02:02:43;;;;;;;0.63;0.63;;;;;;;4.87;67.44;100670.56;4976427;28;20026;-83
2023/03/16 02:05:15;;;;;;;0.30;0.30;;;;;;;4.77;67.77;100689.59;4958098;28;20042;-84
2023/03/16 02:07:43;;;;;;;0.55;0.55;;;;;;;4.73;68.17;100681.16;4973964;28;20034;-83
2023/03/16 02:10:10;;;;;;;0.25;0.20;;;;;;;4.61;68.29;100689.09;4958034;28;20057;-84
2023/03/16 02:12:36;;;;;;;0.20;0.20;;;;;;;4.57;68.49;100667.00;4957938;28;20125;-84
2023/03/16 02:15:02;;;;;;;0.30;0.30;;;;;;;4.71;68.25;100698.25;4957953;28;20026;-83
2023/03/16 02:17:28;;;;;;;0.25;0.25;;;;;;;4.68;68.29;100690.66;4957775;28;20035;-84
2023/03/16 02:20:21;;;;;;;0.38;0.32;;;;;;;4.77;67.65;100699.84;4957864;28;20025;-83
2023/03/16 02:22:48;;;;;;;0.40;0.40;;;;;;;4.70;67.95;100700.88;4973874;28;20034;-84
2023/03/16 02:25:15;;;;;;;0.20;0.20;;;;;;;4.63;68.34;100715.56;4957838;28;20042;-83
2023/03/16 02:27:59;;;;;;;0.25;0.25;;;;;;;4.39;68.42;100681.09;4957620;28;20539;-83
2023/03/16 02:30:25;;;;;;;0.20;0.20;;;;;;;4.55;68.85;100704.66;4989778;28;20022;-83
2023/03/16 02:32:51;;;;;;;0.75;0.60;;;;;;;4.56;68.50;100708.88;4974112;28;20089;-84
2023/03/16 02:35:17;;;;;;;0.10;0.10;;;;;;;4.48;68.45;100710.78;4973573;28;20528;-83
2023/03/16 02:37:42;;;;;;;0.30;0.30;;;;;;;4.58;68.11;100722.50;4973871;28;20117;-83
2023/03/16 02:40:30;;;;;;;0.10;0.10;;;;;;;4.40;69.15;100708.38;4973488;28;20034;-83
2023/03/16 02:43:04;;;;;;;0.20;0.20;;;;;;;4.44;68.84;100710.00;4989696;28;20026;-84
2023/03/16 02:45:41;;;;;;;0.40;0.40;;;;;;;4.28;68.72;100683.88;4974403;28;20034;-84
2023/03/16 02:48:13;;;;;;;0.20;0.20;;;;;;;4.41;68.68;100714.34;4990001;28;20027;-83
2023/03/16 02:50:45;;;;;;;0.10;0.10;;;;;;;4.40;68.84;100718.63;4974344;28;20484;-83
2023/03/16 02:53:12;;;;;;;0.20;0.20;;;;;;;4.52;68.38;100730.31;4974245;28;20085;-84
2023/03/16 02:55:37;;;;;;;0.52;0.40;;;;;;;4.34;68.57;100707.69;4973743;28;20034;-83
2023/03/16 02:58:03;;;;;;;0.50;0.35;;;;;;;4.55;68.40;100733.66;4973511;28;20500;-84
2023/03/16 03:00:29;;;;;;;0.20;0.20;;;;;;;4.55;68.35;100740.50;4973625;28;20037;-83
2023/03/16 03:02:54;;;;;;;0.20;0.20;;;;;;;4.57;67.69;100733.63;4957368;28;20030;-84
2023/03/16 03:05:20;;;;;;;0.75;0.75;;;;;;;4.62;67.76;100744.59;4957402;28;20030;-83
2023/03/16 03:07:46;;;;;;;0.20;0.20;;;;;;;4.53;68.04;100740.56;4989430;28;20027;-83
2023/03/16 03:10:11;;;;;;;0.10;0.10;;;;;;;4.40;67.77;100728.03;4960135;28;20080;-83
2023/03/16 03:12:37;;;;;;;0.20;0.20;;;;;;;4.57;68.02;100754.97;4993292;28;20030;-83
2023/03/16 03:15:02;;;;;;;0.10;0.10;;;;;;;4.31;68.22;100727.34;4993327;28;20499;-84
2023/03/16 03:17:31;;;;;;;0.20;0.20;;;;;;;4.44;68.25;100748.44;4960764;28;20066;-84
2023/03/16 03:19:57;;;;;;;1.75;1.05;;;;;;;4.46;68.22;100744.13;4977400;28;20058;-83
2023/03/16 03:22:23;;;;;;;0.57;0.40;;;;;;;4.53;67.53;100748.25;4993081;28;20468;-83
2023/03/16 03:24:48;;;;;;;0.20;0.20;;;;;;;4.57;67.79;100754.13;4976360;28;20054;-83
2023/03/16 03:27:14;;;;;;;0.40;0.40;;;;;;;4.62;67.62;100759.97;4976779;28;20026;-84
2023/03/16 03:29:39;;;;;;;0.20;0.20;;;;;;;4.69;67.59;100766.66;4976719;28;20484;-84
2023/03/16 03:32:05;;;;;;;0.55;0.50;;;;;;;4.71;67.45;100774.31;4992660;28;20069;-83
2023/03/16 03:34:30;;;;;;;0.82;0.82;;;;;;;4.73;67.61;100777.69;4960268;28;20050;-83
2023/03/16 03:36:56;;;;;;;0.60;0.47;;;;;;;4.63;67.03;100771.94;4976763;28;20034;-84
2023/03/16 03:39:21;;;;;;;0.70;0.70;;;;;;;4.77;67.12;100785.28;4992429;28;20049;-84
2023/03/16 03:41:47;;;;;;;1.98;0.38;;;;;;;4.69;66.50;100770.94;4976876;28;20034;-84
2023/03/16 03:44:12;;;;;;;0.22;0.22;;;;;;;4.74;66.29;100794.75;4976578;28;20033;-83
2023/03/16 03:46:38;;;;;;;0.20;0.20;;;;;;;4.73;66.60;100791.34;4992389;28;20512;-84
2023/03/16 03:49:04;;;;;;;0.15;0.15;;;;;;;4.74;66.29;100794.75;4976234;28;20049;-83
2023/03/16 03:51:32;;;;;;;0.20;0.20;;;;;;;4.65;66.48;100770.19;4992329;28;20037;-83
2023/03/16 03:53:58;;;;;;;0.20;0.20;;;;;;;4.56;66.56;100776.34;4976370;28;20049;-83
2023/03/16 03:56:24;;;;;;;0.20;0.20;;;;;;;4.75;66.97;100796.44;4976019;28;20034;-84
2023/03/16 03:58:49;;;;;;;0.20;0.20;;;;;;;4.76;66.76;100796.41;4976253;28;20027;-84
2023/03/16 04:01:15;;;;;;;0.20;0.20;;;;;;;4.69;66.53;100784.59;4992456;28;20077;-83
2023/03/16 04:03:41;;;;;;;0.22;0.22;;;;;;;4.80;66.82;100799.72;4960105;28;20080;-83
2023/03/16 04:06:07;;;;;;;0.47;0.47;;;;;;;4.73;66.79;100801.59;4976172;28;20484;-82
2023/03/16 04:08:33;;;;;;;0.20;0.20;;;;;;;4.79;67.25;100811.72;4975553;28;20507;-82
2023/03/16 04:10:58;;;;;;;0.30;0.30;;;;;;;4.71;67.37;100798.22;4976051;28;20034;-83
2023/03/16 04:13:24;;;;;;;0.20;0.20;;;;;;;4.80;67.36;100815.13;4959908;28;20037;-83
2023/03/16 04:15:55;;;;;;;0.20;0.20;;;;;;;4.66;67.22;100810.31;4992190;28;20412;-82
2023/03/16 04:18:21;;;;;;;0.20;0.20;;;;;;;4.56;67.62;100796.00;4976013;28;20157;-82
2023/03/16 04:20:47;;;;;;;0.38;0.38;;;;;;;4.68;67.46;100816.22;4959614;28;20022;-82
2023/03/16 04:23:12;;;;;;;0.38;0.38;;;;;;;4.74;67.03;100825.53;4975335;28;20018;-82
2023/03/16 04:25:38;;;;;;;0.47;0.38;;;;;;;4.67;67.19;100814.53;4959397;28;20546;-82
2023/03/16 04:28:04;;;;;;;0.55;0.43;;;;;;;4.69;67.31;100815.34;4975710;28;20026;-82
2023/03/16 04:30:29;;;;;;;0.90;0.85;;;;;;;4.79;66.80;100824.53;4959282;28;20038;-82
2023/03/16 04:32:55;;;;;;;0.20;0.20;;;;;;;4.81;66.63;100817.63;4959468;28;20022;-82
2023/03/16 04:35:21;;;;;;;0.95;0.88;;;;;;;4.97;66.20;100836.09;4959121;28;20130;-82
2023/03/16 04:37:46;;;;;;;0.30;0.30;;;;;;;4.93;66.26;100839.63;4972534;28;20026;-83
2023/03/16 04:40:15;;;;;;;0.30;0.30;;;;;;;4.92;66.08;100832.81;4975070;28;20065;-82
2023/03/16 04:42:40;;;;;;;0.35;0.30;;;;;;;4.99;65.90;100836.91;4959814;28;20019;-82
2023/03/16 04:45:07;;;;;;;0.63;0.50;;;;;;;4.93;65.61;100831.09;4975341;28;20408;-80
2023/03/16 04:47:33;;;;;;;0.80;0.77;;;;;;;4.85;65.42;100844.06;4959154;28;20957;-80
2023/03/16 04:50:02;;;;;;;1.27;0.73;;;;;;;4.94;65.24;100843.88;4974586;28;20022;-81
2023/03/16 04:52:27;;;;;;;0.30;0.30;;;;;;;4.96;65.72;100841.25;4958574;28;20438;-81
2023/03/16 04:54:53;;;;;;;1.95;1.27;;;;;;;4.90;65.12;100840.50;4974653;28;20042;-81
2023/03/16 04:57:18;;;;;;;0.30;0.30;;;;;;;4.98;65.15;100845.47;4974711;28;20030;-81
2023/03/16 04:59:44;;;;;;;0.35;0.32;;;;;;;4.93;65.21;100856.72;4974869;28;20043;-81
2023/03/16 05:02:10;;;;;;;0.80;0.80;;;;;;;4.99;65.09;100854.00;4972241;28;20072;-90
2023/03/16 05:04:35;;;;;;;0.35;0.35;;;;;;;4.88;64.99;100847.41;4974513;28;20118;-87
2023/03/16 05:07:00;;;;;;;1.00;0.65;;;;;;;4.98;64.73;100852.31;4990360;28;20105;-87
2023/03/16 05:09:26;;;;;;;0.43;0.40;;;;;;;4.99;64.74;100842.03;4990489;28;20488;-83
2023/03/16 05:11:51;;;;;;;0.68;0.57;;;;;;;5.04;64.16;100852.19;4990982;28;20034;-83
2023/03/16 05:14:17;;;;;;;0.65;0.65;;;;;;;4.83;64.47;100827.88;4973357;28;20405;-83
2023/03/16 05:16:42;;;;;;;0.20;0.20;;;;;;;5.01;64.17;100847.13;4990500;28;20030;-83
2023/03/16 05:19:09;;;;;;;1.20;0.85;;;;;;;5.06;63.23;100842.75;4974147;28;20046;-82
2023/03/16 05:21:36;;;;;;;1.35;1.10;;;;;;;5.09;63.08;100855.47;4990140;28;20033;-82
2023/03/16 05:24:05;;;;;;;0.82;0.80;;;;;;;5.12;63.60;100855.44;4971538;28;20038;-88
2023/03/16 05:26:30;;;;;;;2.42;0.93;;;;;;;5.16;63.02;100854.47;4958715;28;20376;-92
2023/03/16 05:28:57;;;;;;;0.85;0.45;;;;;;;5.17;63.37;100858.72;4958059;28;20480;-82
2023/03/16 05:31:25;;;;;;;0.20;0.20;;;;;;;5.04;62.96;100844.50;4989774;28;20030;-86
2023/03/16 05:33:51;;;;;;;0.70;0.65;;;;;;;5.14;63.25;100864.78;4974417;28;20156;-84
2023/03/16 05:36:16;;;;;;;2.55;1.33;;;;;;;5.20;62.85;100858.66;4989241;28;20180;-83
2023/03/16 05:38:42;;;;;;;0.22;0.22;;;;;;;5.26;62.19;100881.59;4989736;28;20492;-85
2023/03/16 05:41:08;;;;;;;0.47;0.45;;;;;;;5.31;61.76;100884.91;5004102;28;20019;-87
2023/03/16 05:43:33;;;;;;;5.75;4.95;;;;;;;5.33;62.40;100890.00;4958737;28;20065;-83
2023/03/16 05:45:58;;;;;;;2.58;1.27;;;;;;;5.22;61.47;100858.63;4972374;28;20038;-87
2023/03/16 05:48:25;;;;;;;0.30;0.30;;;;;;;5.46;61.70;100905.06;4971940;28;20041;-86
2023/03/16 05:50:50;;;;;;;0.30;0.30;;;;;;;5.35;60.89;100883.13;4986258;28;20022;-83
2023/03/16 05:53:16;;;;;;;0.30;0.30;;;;;;;5.44;61.48;100909.41;4985139;28;20038;-86
2023/03/16 05:55:41;;;;;;;1.08;0.75;;;;;;;5.46;61.08;100899.94;4989334;28;20045;-82
2023/03/16 05:58:07;;;;;;;0.20;0.20;;;;;;;5.47;60.71;100896.50;4984175;28;20036;-84
2023/03/16 06:00:32;;;;;;;0.40;0.40;;;;;;;5.52;61.38;100898.13;4954987;28;20984;-91
2023/03/16 06:02:58;;;;;;;0.50;0.50;;;;;;;5.42;60.63;100882.94;4985305;28;20479;-89
2023/03/16 06:05:24;;;;;;;0.30;0.30;;;;;;;5.42;61.19;100897.50;4986492;28;20034;-91
2023/03/16 06:07:50;;;;;;;1.45;0.40;;;;;;;5.41;60.92;100888.97;4971780;28;20034;-88
2023/03/16 06:10:16;;;;;;;0.50;0.50;;;;;;;5.45;60.47;100900.81;4969858;28;20056;-87
2023/03/16 06:12:41;;;;;;;1.02;0.93;;;;;;;5.57;60.47;100916.81;4979154;28;20472;-93
2023/03/16 06:15:07;;;;;;;1.92;1.05;;;;;;;5.58;59.44;100915.91;4959044;28;20036;-91
2023/03/16 06:17:34;;;;;;;0.40;0.40;;;;;;;5.69;58.85;100919.06;4956288;28;20033;-93
2023/03/16 06:20:00;;;;;;;1.27;1.13;;;;;;;5.71;59.04;100925.03;4970956;28;20054;-92
2023/03/16 06:22:25;;;;;;;0.90;0.65;;;;;;;5.86;58.64;100950.31;4958979;28;20589;-94
2023/03/16 06:24:51;;;;;;;1.73;0.75;;;;;;;5.83;58.06;100934.16;4976541;28;20025;-86
2023/03/16 06:27:19;;;;;;;0.63;0.55;;;;;;;5.79;57.85;100933.38;4982922;28;20113;-89
2023/03/16 06:29:45;;;;;;;0.40;0.40;;;;;;;5.81;57.59;100952.19;4957674;28;20066;-85
2023/03/16 06:32:10;;;;;;;0.30;0.30;;;;;;;5.81;57.44;100964.16;4983977;28;20039;-89
2023/03/16 06:34:36;;;;;;;0.20;0.20;;;;;;;5.77;57.88;100965.94;4983436;28;20046;-86
2023/03/16 06:37:02;;;;;;;0.40;0.40;;;;;;;5.81;57.69;100957.31;4956797;28;20038;-83
2023/03/16 06:39:28;;;;;;;0.30;0.30;;;;;;;5.83;57.67;100959.84;4978025;28;20495;-86
2023/03/16 06:41:53;;;;;;;0.47;0.47;;;;;;;5.77;57.57;100973.66;4991235;28;20088;-88
2023/03/16 06:44:20;;;;;;;1.90;1.27;;;;;;;5.89;57.34;100980.22;4955848;28;20058;-93
2023/03/16 06:46:45;;;;;;;0.40;0.40;;;;;;;5.73;57.47;100959.22;4967432;28;20030;-87
2023/03/16 06:49:11;;;;;;;0.43;0.43;;;;;;;5.98;57.43;100985.16;4981292;28;20073;-91
2023/03/16 06:51:36;;;;;;;0.55;0.47;;;;;;;5.82;57.51;100969.25;4992218;28;20034;-90
2023/03/16 06:54:02;;;;;;;0.45;0.45;;;;;;;5.83;57.40;100988.91;4984298;28;20037;-90
2023/03/16 06:56:27;;;;;;;3.40;0.57;;;;;;;5.97;57.60;100994.59;4979489;28;20053;-92
2023/03/16 06:58:53;;;;;;;0.40;0.40;;;;;;;6.01;57.78;100993.66;4960887;28;20038;-84
2023/03/16 07:01:18;;;;;;;0.38;0.38;;;;;;;5.98;57.82;100980.88;4977221;28;20507;-91
2023/03/16 07:03:44;;;;;;;0.73;0.73;;;;;;;5.92;57.65;100964.78;4992989;28;20034;-86
2023/03/16 07:06:09;;;;;;;0.73;0.60;;;;;;;6.00;57.97;100991.13;4980463;28;20030;-87
2023/03/16 07:08:35;;;;;;;1.00;0.52;;;;;;;5.88;57.88;100994.78;4960843;28;20485;-92
2023/03/16 07:11:00;;;;;;;0.80;0.63;;;;;;;5.80;58.15;100990.69;4960270;28;20916;-90
2023/03/16 07:13:26;;;;;;;0.82;0.45;;;;;;;5.74;58.46;100999.41;4992906;28;20030;-94
2023/03/16 07:15:51;;;;;;;0.70;0.68;;;;;;;5.75;57.83;101004.50;4976930;28;20026;-88
2023/03/16 07:18:18;;;;;;;2.92;1.67;;;;;;;5.80;57.69;100993.25;4962383;28;20030;-92
2023/03/16 07:20:43;;;;;;;0.90;0.60;;;;;;;5.87;57.77;101005.94;4999774;28;20125;-94
2023/03/16 07:23:09;;;;;;;0.85;0.57;;;;;;;5.84;57.53;101016.28;5002337;28;20061;-92
2023/03/16 07:25:35;;;;;;;0.45;0.38;;;;;;;5.84;57.79;100997.47;4982062;28;20038;-93
2023/03/16 07:28:02;;;;;;;0.63;0.63;;;;;;;5.88;57.98;101012.75;4962697;28;20026;-93
2023/03/16 07:30:28;;;;;;;2.20;1.00;;;;;;;5.84;57.06;100995.75;4968357;28;20034;-91
2023/03/16 07:32:53;;;;;;;1.23;0.85;;;;;;;5.98;57.22;101008.28;4992790;28;20026;-88
2023/03/16 07:35:19;;;;;;;1.15;0.80;;;;;;;5.89;57.23;100975.91;4991859;28;20038;-87
2023/03/16 07:37:44;;;;;;;1.48;1.30;;;;;;;6.11;57.05;101011.41;4993594;28;20030;-92
2023/03/16 07:40:10;;;;;;;1.13;0.82;;;;;;;6.14;57.11;101016.47;4978277;28;20061;-88
2023/03/16 07:42:36;;;;;;;0.82;0.52;;;;;;;5.97;56.86;101006.59;4992636;28;20022;-89
2023/03/16 07:45:02;;;;;;;0.63;0.52;;;;;;;6.12;56.64;101003.66;4980297;28;20094;-85
2023/03/16 07:47:29;;;;;;;0.50;0.47;;;;;;;6.06;56.96;101026.06;4977896;28;20018;-87
2023/03/16 07:49:54;;;;;;;0.30;0.30;;;;;;;6.32;58.47;101036.56;5018337;28;20474;-90
2023/03/16 07:52:20;;;;;;;0.75;0.75;;;;;;;6.38;56.17;101038.97;4996330;28;20512;-94
2023/03/16 07:54:45;;;;;;;1.48;0.40;;;;;;;6.22;56.37;101040.25;4968009;28;20057;-92
2023/03/16 07:57:11;;;;;;;0.60;0.40;;;;;;;6.05;56.49;101038.06;4964821;28;20034;-91
2023/03/16 07:59:37;;;;;;;0.30;0.30;;;;;;;5.99;58.04;101044.19;4995061;28;20034;-89
2023/03/16 08:02:03;;;;;;;0.47;0.47;;;;;;;6.11;57.14;101044.81;4965917;28;20074;-89
2023/03/16 08:04:28;;;;;;;0.65;0.55;;;;;;;6.12;57.50;101031.09;4993207;28;20061;-89
2023/03/16 08:06:59;;;;;;;1.00;0.60;;;;;;;6.23;57.19;101049.66;4994222;28;20041;-90
2023/03/16 08:09:25;;;;;;;0.52;0.52;;;;;;;6.13;57.02;101055.88;4992038;28;20038;-81
2023/03/16 08:11:50;;;;;;;0.40;0.32;;;;;;;6.26;57.52;101057.25;5007922;28;20146;-90
2023/03/16 08:14:16;;;;;;;0.93;0.88;;;;;;;6.32;57.16;101057.13;4988953;28;20026;-89
2023/03/16 08:16:41;;;;;;;2.83;1.70;;;;;;;6.25;57.38;101038.44;4991586;28;20526;-88
2023/03/16 08:19:07;;;;;;;0.65;0.50;;;;;;;6.31;56.63;101028.03;4974522;28;20094;-90
2023/03/16 08:21:33;;;;;;;0.40;0.40;;;;;;;6.35;56.44;101041.63;4990780;28;20026;-84
2023/03/16 08:23:58;;;;;;;0.52;0.50;;;;;;;6.42;56.88;101045.75;4992294;28;20026;-88
2023/03/16 08:26:25;;;;;;;0.55;0.47;;;;;;;6.63;57.01;101053.78;4980379;28;20022;-92
2023/03/16 08:28:50;;;;;;;0.55;0.55;;;;;;;6.75;56.36;101067.16;4995203;28;20472;-81
2023/03/16 08:31:16;;;;;;;1.23;0.98;;;;;;;6.71;56.69;101060.41;5006050;28;20034;-84
2023/03/16 08:33:42;;;;;;;3.50;0.98;;;;;;;6.79;56.49;101057.66;4990473;28;20114;-87
2023/03/16 08:36:09;;;;;;;0.73;0.60;;;;;;;6.90;56.39;101056.47;4989180;28;20039;-92
2023/03/16 08:38:34;;;;;;;0.45;0.45;;;;;;;6.88;56.05;101067.66;4963829;28;20065;-86
2023/03/16 08:41:00;;;;;;;1.08;0.80;;;;;;;6.76;56.71;101057.72;4979054;28;20034;-83
2023/03/16 08:43:26;;;;;;;1.30;0.88;;;;;;;6.86;56.73;101067.72;4975009;28;20054;-87
2023/03/16 08:45:52;;;;;;;1.27;0.93;;;;;;;6.97;55.93;101075.16;4994879;28;20022;-92
2023/03/16 08:48:18;;;;;;;1.33;1.10;;;;;;;6.95;56.11;101066.63;4995936;28;20105;-94
2023/03/16 08:50:44;;;;;;;0.82;0.70;;;;;;;7.11;55.90;101069.66;4997398;28;20066;-86
2023/03/16 08:53:11;;;;;;;0.40;0.40;;;;;;;7.07;55.71;101074.00;4975938;28;20054;-88
2023/03/16 08:55:36;;;;;;;1.23;0.60;;;;;;;6.98;55.72;101087.16;4985482;28;20158;-84
2023/03/16 08:58:02;;;;;;;1.23;1.05;;;;;;;7.06;56.10;101074.06;5006305;28;20030;-86
2023/03/16 09:00:28;;;;;;;0.50;0.47;;;;;;;6.90;55.88;101076.22;5006079;28;20135;-86
2023/03/16 09:02:54;;;;;;;0.50;0.38;;;;;;;7.02;56.41;101075.03;4991924;28;20117;-83
2023/03/16 09:05:20;;;;;;;0.50;0.47;;;;;;;7.12;55.40;101061.88;5001589;28;20026;-91
2023/03/16 09:07:46;;;;;;;1.70;0.88;;;;;;;7.17;55.35;101065.16;4981241;28;20494;-89
2023/03/16 09:10:14;;;;;;;1.98;1.27;;;;;;;7.14;55.48;101054.97;4996690;28;20019;-87
2023/03/16 09:12:41;;;;;;;3.90;0.77;;;;;;;7.38;54.60;101070.59;4979646;28;20492;-88
2023/03/16 09:15:09;;;;;;;4.47;1.58;;;;;;;7.41;55.32;101075.66;4983484;28;20075;-91
2023/03/16 09:17:35;;;;;;;1.17;0.95;;;;;;;7.46;54.34;101071.22;4959236;28;20129;-87
2023/03/16 09:20:01;;;;;;;2.45;1.27;;;;;;;7.48;54.43;101074.59;4974041;28;20022;-83
2023/03/16 09:22:27;;;;;;;0.50;0.43;;;;;;;7.40;54.62;101086.84;4994845;28;20032;-87
2023/03/16 09:24:52;;;;;;;0.50;0.50;;;;;;;7.37;54.70;101089.50;4994830;28;20026;-94
2023/03/16 09:27:19;;;;;;;2.10;1.00;;;;;;;7.44;54.55;101093.59;4974408;28;20038;-89
2023/03/16 09:29:45;;;;;;;0.52;0.43;;;;;;;7.29;55.25;101099.19;4989996;28;20077;-94
2023/03/16 09:32:11;;;;;;;1.20;0.95;;;;;;;7.22;54.90;101077.06;4985993;28;20023;-87
2023/03/16 09:34:36;;;;;;;0.50;0.40;;;;;;;7.31;54.52;101093.09;4987736;28;20065;-86
2023/03/16 09:37:02;;;;;;;0.90;0.60;;;;;;;7.28;54.12;101069.19;4978681;28;20027;-87
2023/03/16 09:39:27;;;;;;;1.02;0.70;;;;;;;7.40;53.82;101090.25;4978038;28;20073;-89
2023/03/16 09:42:03;;;;;;;0.70;0.70;;;;;;;7.27;54.29;101049.47;4988220;28;20034;-92
2023/03/16 09:44:50;;;;;;;0.95;0.68;;;;;;;7.59;54.58;101095.72;4970149;28;20126;-90
2023/03/16 09:47:17;;;;;;;2.42;0.70;;;;;;;7.70;53.98;101109.13;5002125;28;20023;-95
2023/03/16 09:49:46;;;;;;;0.90;0.85;;;;;;;7.77;54.04;101107.22;4976930;28;20030;-89
2023/03/16 09:52:29;;;;;;;2.50;1.50;;;;;;;7.90;54.25;101105.13;4971119;28;20062;-90
2023/03/16 09:55:22;;;;;;;1.05;0.75;;;;;;;7.83;53.16;101117.34;4971467;28;20463;-91
2023/03/16 09:57:48;;;;;;;3.65;1.55;;;;;;;7.67;53.76;101106.66;4985794;28;20095;-94
2023/03/16 10:00:22;;;;;;;1.60;1.02;;;;;;;7.81;52.99;101100.25;4991886;28;20026;-85
2023/03/16 10:02:48;;;;;;;2.33;1.75;;;;;;;7.87;53.66;101113.78;4982562;28;20030;-87
2023/03/16 10:05:15;;;;;;;6.93;3.65;;;;;;;7.68;54.14;101107.50;4990387;28;20037;-88
2023/03/16 10:08:07;;;;;;;2.83;1.20;;;;;;;7.81;53.64;101115.69;4978051;28;20026;-84
2023/03/16 10:10:45;;;;;;;0.88;0.77;;;;;;;7.85;53.25;101115.56;4984995;28;20459;-85
2023/03/16 10:13:35;;;;;;;1.15;0.90;;;;;;;7.76;53.54;101113.25;4992744;28;20031;-84
2023/03/16 10:16:03;;;;;;;0.85;0.77;;;;;;;7.69;53.75;101111.75;4990158;28;20034;-83
2023/03/16 10:18:31;;;;;;;2.40;0.75;;;;;;;7.69;54.14;101124.63;5003177;28;20019;-85
2023/03/16 10:20:58;;;;;;;0.60;0.57;;;;;;;7.41;53.73;101109.97;4995300;28;20038;-88
2023/03/16 10:23:24;;;;;;;1.00;0.63;;;;;;;7.50;54.23;101114.00;4966081;28;20054;-84
2023/03/16 10:25:54;;;;;;;3.17;1.90;;;;;;;7.58;54.06;101126.69;4985346;28;20336;-86
2023/03/16 10:28:26;;;;;;;2.80;1.75;;;;;;;7.67;54.63;101113.50;4990554;28;20069;-90
2023/03/16 10:30:53;;;;;;;;;;;;;;;7.78;53.94;101128.69;4997577;28;20057;-90
2023/03/16 10:33:22;;;;;;;1.50;1.40;;;;;;;7.59;54.40;101129.22;5004516;28;19988;-82
2023/03/16 10:35:53;;;;;;;1.77;0.95;;;;;;;7.53;53.89;101111.34;5001468;28;20058;-83
2023/03/16 10:38:29;;;;;;;1.48;0.52;;;;;;;7.68;53.89;101122.94;5006748;28;20080;-81
2023/03/16 10:40:56;;;;;;;1.90;1.23;;;;;;;7.67;53.99;101134.97;5013847;28;20109;-89
2023/03/16 10:43:23;;;;;;;1.00;0.75;;;;;;;7.55;54.28;101130.16;4961427;28;20030;-86
2023/03/16 10:45:48;;;;;;;0.63;0.60;;;;;;;7.59;54.63;101136.94;4983311;28;20033;-86
2023/03/16 10:48:19;;;;;;;0.70;0.43;;;;;;;7.59;55.15;101129.22;4977597;28;20026;-82
2023/03/16 10:50:52;;;;;;;1.83;1.00;;;;;;;7.58;54.04;101134.41;4980395;28;20073;-85
2023/03/16 10:53:22;;;;;;;0.77;0.65;;;;;;;7.50;54.08;101085.69;4962840;28;20595;-84
2023/03/16 10:55:49;;;;;;;3.85;1.48;;;;;;;7.59;54.19;101116.34;5000012;28;20490;-82
2023/03/16 10:58:44;;;;;;;1.10;1.00;;;;;;;7.75;54.25;101130.44;4988319;28;20033;-86
2023/03/16 11:01:23;;;;;;;1.00;0.80;;;;;;;7.75;54.13;101133.00;4975181;28;20030;-85
2023/03/16 11:03:50;;;;;;;1.45;0.90;;;;;;;7.66;54.36;101120.41;5000869;28;20026;-82
2023/03/16 11:06:24;;;;;;;1.25;0.95;;;;;;;7.67;55.00;101132.41;4994334;28;20121;-83
2023/03/16 11:08:51;;;;;;;1.48;1.35;;;;;;;7.67;54.12;101108.34;4994260;28;20018;-88
2023/03/16 11:11:20;;;;;;;1.65;1.05;;;;;;;7.76;54.25;101120.97;4981060;28;20050;-85
2023/03/16 11:13:46;;;;;;;1.63;1.45;;;;;;;7.58;54.53;101104.34;4968873;28;20030;-91
2023/03/16 11:16:29;;;;;;;5.25;2.80;;;;;;;7.65;54.82;101128.16;5008587;28;20064;-86
2023/03/16 11:19:03;;;;;;;3.30;2.00;;;;;;;7.46;54.63;101122.69;4993803;28;20519;-87
2023/03/16 11:21:53;;;;;;;1.48;1.17;;;;;;;7.43;55.98;101141.66;4986111;28;20084;-89
2023/03/16 11:24:52;;;;;;;4.18;1.98;;;;;;;7.42;56.56;101139.97;5007700;28;20109;-86
2023/03/16 11:27:42;;;;;;;8.75;2.40;;;;;;;7.27;56.35;101131.81;4989142;28;20097;-85
2023/03/16 11:30:19;;;;;;;4.20;2.00;;;;;;;7.43;56.46;101148.53;5009798;28;20030;-86
2023/03/16 11:32:49;;;;;;;1.73;1.63;;;;;;;7.41;57.24;101145.16;4992072;28;20097;-88
2023/03/16 11:35:20;;;;;;;2.17;1.80;;;;;;;7.48;56.78;101141.53;4993856;28;20100;-84
2023/03/16 11:37:58;;;;;;;1.75;1.60;;;;;;;7.48;56.57;101157.00;4966477;28;20027;-94